Hill City, KS

7:29 AM CDT on May 25, 2015 (GMT -0500)
Hill City Municipal | | Change Station
CLOSE
Current Station
Airport
Location: Hill City,
Elevation: 2224 ft
Nearby Weather Stations
Active Advisory: Special Statement Active Notice: Public Information Statement

Elev 2224 ft 39.37 °N, 99.83 °W | Updated 13 minutes ago

Fog
Fog
50 °F
Feels Like 50 °F
N
0
Wind Variable Wind from North

Today
High -- | Low -- °F
--% Chance of Precip.
Yesterday
High -- | Low -- °F
Precip. -- in
6:18 AM 8:54 PM
Waxing Crescent, 48% visible
Pressure 29.82 in
Visibility 0.2 miles
Clouds
Dew Point 49 °F
Humidity 96%
Rainfall 0.08 in
Snow Depth Not available.
UV Not available.
Pollen 3.00 out of 12
Air Quality Not available.
Flu Activity No Activity
SPECI KHLC 251216Z AUTO 00000KT 1/4SM FG VV001 10/09 A2982 RMK AO2 T01000094 $

More Conditions Fewer Conditions

Pressure 29.82 in
Visibility 0.2 miles
Clouds
Dew Point 49 °F
Humidity 96%
Rainfall 0.08 in
Snow Depth Not available.
UV Not available.
Pollen 3.00 out of 12
Air Quality Not available.
Flu Activity No Activity
SPECI KHLC 251216Z AUTO 00000KT 1/4SM FG VV001 10/09 A2982 RMK AO2 T01000094 $

More Conditions Fewer Conditions

10-Day Weather Forecast

Almanac

Astronomy

May. 25, 2015 Rise Set
Actual Time
Civil Twilight
Nautical Twilight
Astronomical Twilight
Moon
Length of Visible Light
Length of Day
Tomorrow will be .
, % of the Moon is Illuminated

Today's Extremes

State Highs State Lows

Community

WunderPhotos

Upload Photos

1,823,987 photos uploaded!

WunderBlogs® & News

Nearby

Air Quality

  Air Quality AQ Index Pollutant
Not available.

Snow Depth

Station Depth Elevation

Earthquake Activity

City Distance Mag. Time & Date
Minimum magnitude displayed is 2.5.

Coastal Water Temperatures

Place Temperature

Stations

Nearby Weather Stations

Station Location Temp. Windchill Dew Point Humidity Wind Precip. Elev Updated Type
                   
Special Statement
Statement as of 6:20 AM MDT on May 25, 2015

Patchy dense fog has developed over parts of the area... with
visibilities one half mile or less reported a some locations.
Travelers should be prepared for sudden restrictions in
visibilities over short distances this morning. This fog should
begin to lift over the next few hours with conditions improving by
10 am CDT.